KPBG/PBG METAR and TAF weather

Enter ICAO airport designator
Station Type Date Time Source
KPBG METAR 2020/07/13 13:53 UTC NOAA

KPBG 131353Z AUTO 08006KT 10SM FEW024 BKN035 OVC049 22/20 A2977 RMK AO2 RAE31 SLP081 P0005 T02170200 TSNO


Station Type Date Time Source
KPBG Decoded METAR 2020/07/13 13:53 UTC NOAA

PLATTSBURGH INTERNATIONAL AIRPORT, NY, United States (KPBG) 44-39N 073-28W
Jul 13, 2020 - 09:53 AM EDT / 2020.07.13 1353 UTC
Wind: from the E (080 degrees) at 7 MPH (6 KT):0
Visibility: 10 mile(s):0
Sky conditions: overcast
Precipitation last hour: 0.05 inches
Temperature: 71.1 F (21.7 C)
Dew Point: 68.0 F (20.0 C)
Relative Humidity: 90%
Pressure (altimeter): 29.77 in. Hg (1008 hPa)
ob: KPBG 131353Z AUTO 08006KT 10SM FEW024 BKN035 OVC049 22/20 A2977 RMK AO2 RAE31 SLP081 P0005 T02170200 TSNO
cycle: 14

Station Type Date Time Source
KPBG TAF 2020/07/13 13:06 UTC NOAA

TAF KPBG 131302Z 1313/1412 VRB04KT P6SM VCSH OVC035
TEMPO 1313/1315 1SM RA BR OVC015
FM131900 VRB04KT P6SM VCSH BKN050

Example: see airport list